sensor_id;sensor_type;location;lat;lon;timestamp;pressure;altitude;pressure_sealevel;temperature;humidity
72370;BME280;60343;-32.030;115.880;2023-07-31T00:00:04;102822.38;;;12.60;95.50
72370;BME280;60343;-32.030;115.880;2023-07-31T00:02:39;102821.28;;;12.72;95.22
72370;BME280;60343;-32.030;115.880;2023-07-31T00:05:14;102824.25;;;12.79;94.28
72370;BME280;60343;-32.030;115.880;2023-07-31T00:07:48;102821.88;;;12.85;95.02
72370;BME280;60343;-32.030;115.880;2023-07-31T00:10:23;102821.06;;;13.04;95.11
72370;BME280;60343;-32.030;115.880;2023-07-31T00:12:57;102823.66;;;13.35;94.35
72370;BME280;60343;-32.030;115.880;2023-07-31T00:15:37;102824.69;;;13.53;94.10
72370;BME280;60343;-32.030;115.880;2023-07-31T00:18:12;102819.97;;;13.64;93.09
72370;BME280;60343;-32.030;115.880;2023-07-31T00:20:46;102825.75;;;13.79;92.40
72370;BME280;60343;-32.030;115.880;2023-07-31T00:23:21;102823.47;;;13.94;91.09
72370;BME280;60343;-32.030;115.880;2023-07-31T00:25:56;102831.66;;;14.11;90.91
72370;BME280;60343;-32.030;115.880;2023-07-31T00:28:31;102841.25;;;14.24;87.98
72370;BME280;60343;-32.030;115.880;2023-07-31T00:31:11;102840.88;;;14.55;87.55
72370;BME280;60343;-32.030;115.880;2023-07-31T00:33:45;102841.44;;;15.14;85.80
72370;BME280;60343;-32.030;115.880;2023-07-31T00:36:20;102841.31;;;15.68;79.78
72370;BME280;60343;-32.030;115.880;2023-07-31T00:38:54;102842.41;;;16.35;76.55
72370;BME280;60343;-32.030;115.880;2023-07-31T00:41:28;102842.97;;;16.64;75.17
72370;BME280;60343;-32.030;115.880;2023-07-31T00:44:03;102839.47;;;16.20;75.50
72370;BME280;60343;-32.030;115.880;2023-07-31T00:46:43;102842.59;;;15.82;76.22
72370;BME280;60343;-32.030;115.880;2023-07-31T00:49:19;102847.41;;;15.53;77.51
72370;BME280;60343;-32.030;115.880;2023-07-31T00:51:54;102846.22;;;15.37;77.67
72370;BME280;60343;-32.030;115.880;2023-07-31T00:54:30;102849.84;;;15.28;78.36
72370;BME280;60343;-32.030;115.880;2023-07-31T00:57:05;102853.22;;;15.30;78.96
72370;BME280;60343;-32.030;115.880;2023-07-31T00:59:39;102853.00;;;15.24;78.65
72370;BME280;60343;-32.030;115.880;2023-07-31T01:02:19;102849.91;;;15.19;79.26
72370;BME280;60343;-32.030;115.880;2023-07-31T01:04:54;102850.81;;;15.10;79.54
72370;BME280;60343;-32.030;115.880;2023-07-31T01:07:34;102866.59;;;15.67;79.78
72370;BME280;60343;-32.030;115.880;2023-07-31T01:10:15;102858.94;;;16.92;77.31
72370;BME280;60343;-32.030;115.880;2023-07-31T01:12:51;102854.22;;;17.84;71.76
72370;BME280;60343;-32.030;115.880;2023-07-31T01:15:27;102857.75;;;18.01;70.13
72370;BME280;60343;-32.030;115.880;2023-07-31T01:18:07;102861.63;;;18.07;68.56
72370;BME280;60343;-32.030;115.880;2023-07-31T01:20:43;102855.13;;;18.48;67.19
72370;BME280;60343;-32.030;115.880;2023-07-31T01:23:40;102858.72;;;19.18;65.82
72370;BME280;60343;-32.030;115.880;2023-07-31T01:26:30;102866.63;;;19.82;64.14
72370;BME280;60343;-32.030;115.880;2023-07-31T01:29:10;102858.91;;;20.23;62.04
72370;BME280;60343;-32.030;115.880;2023-07-31T01:31:49;102858.28;;;20.65;60.87
72370;BME280;60343;-32.030;115.880;2023-07-31T01:34:24;102848.75;;;21.05;58.90
72370;BME280;60343;-32.030;115.880;2023-07-31T01:37:00;102857.13;;;20.88;57.22
72370;BME280;60343;-32.030;115.880;2023-07-31T01:39:35;102858.22;;;19.91;61.39
72370;BME280;60343;-32.030;115.880;2023-07-31T01:42:15;102860.13;;;19.06;62.97
72370;BME280;60343;-32.030;115.880;2023-07-31T01:44:49;102857.41;;;19.06;64.04
72370;BME280;60343;-32.030;115.880;2023-07-31T01:47:24;102857.28;;;19.31;62.87
72370;BME280;60343;-32.030;115.880;2023-07-31T01:49:58;102860.78;;;19.39;61.69
72370;BME280;60343;-32.030;115.880;2023-07-31T01:52:33;102865.00;;;19.42;62.74
72370;BME280;60343;-32.030;115.880;2023-07-31T01:55:08;102863.13;;;19.42;64.38
72370;BME280;60343;-32.030;115.880;2023-07-31T01:57:48;102853.75;;;19.53;61.57
72370;BME280;60343;-32.030;115.880;2023-07-31T02:00:22;102849.91;;;19.70;62.01
72370;BME280;60343;-32.030;115.880;2023-07-31T02:02:57;102848.00;;;20.08;60.52
72370;BME280;60343;-32.030;115.880;2023-07-31T02:05:33;102846.94;;;19.80;60.63
72370;BME280;60343;-32.030;115.880;2023-07-31T02:08:07;102838.09;;;20.15;61.23
72370;BME280;60343;-32.030;115.880;2023-07-31T02:10:42;102828.19;;;21.02;58.91
72370;BME280;60343;-32.030;115.880;2023-07-31T02:13:22;102834.53;;;21.45;57.74
72370;BME280;60343;-32.030;115.880;2023-07-31T02:15:56;102825.16;;;21.48;56.13
72370;BME280;60343;-32.030;115.880;2023-07-31T02:18:31;102821.50;;;21.62;56.41
72370;BME280;60343;-32.030;115.880;2023-07-31T02:21:05;102818.97;;;21.88;54.69
72370;BME280;60343;-32.030;115.880;2023-07-31T02:23:40;102816.84;;;22.05;54.82
72370;BME280;60343;-32.030;115.880;2023-07-31T02:26:14;102816.25;;;21.60;54.45
72370;BME280;60343;-32.030;115.880;2023-07-31T02:28:55;102816.97;;;21.48;55.00
72370;BME280;60343;-32.030;115.880;2023-07-31T02:31:29;102810.50;;;21.27;54.72
72370;BME280;60343;-32.030;115.880;2023-07-31T02:34:04;102809.66;;;21.12;55.79
72370;BME280;60343;-32.030;115.880;2023-07-31T02:36:38;102802.09;;;20.93;56.05
72370;BME280;60343;-32.030;115.880;2023-07-31T02:39:13;102799.00;;;20.96;55.91
72370;BME280;60343;-32.030;115.880;2023-07-31T02:41:47;102800.25;;;20.79;56.83
72370;BME280;60343;-32.030;115.880;2023-07-31T02:44:28;102796.06;;;20.76;55.83
72370;BME280;60343;-32.030;115.880;2023-07-31T02:47:02;102794.75;;;20.72;55.10
72370;BME280;60343;-32.030;115.880;2023-07-31T02:49:37;102795.41;;;20.60;57.42
72370;BME280;60343;-32.030;115.880;2023-07-31T02:52:12;102795.88;;;20.63;57.30
72370;BME280;60343;-32.030;115.880;2023-07-31T02:54:46;102791.56;;;20.54;57.46
72370;BME280;60343;-32.030;115.880;2023-07-31T02:57:20;102791.41;;;20.55;57.44
72370;BME280;60343;-32.030;115.880;2023-07-31T03:00:01;102783.97;;;20.64;55.96
72370;BME280;60343;-32.030;115.880;2023-07-31T03:02:35;102778.16;;;20.67;56.28
72370;BME280;60343;-32.030;115.880;2023-07-31T03:05:10;102776.75;;;20.57;56.87
72370;BME280;60343;-32.030;115.880;2023-07-31T03:07:44;102780.03;;;20.08;57.00
72370;BME280;60343;-32.030;115.880;2023-07-31T03:10:19;102778.28;;;19.63;60.52
72370;BME280;60343;-32.030;115.880;2023-07-31T03:12:53;102778.94;;;19.65;58.86
72370;BME280;60343;-32.030;115.880;2023-07-31T03:15:34;102761.94;;;19.86;58.42
72370;BME280;60343;-32.030;115.880;2023-07-31T03:18:08;102762.78;;;20.16;57.53
72370;BME280;60343;-32.030;115.880;2023-07-31T03:20:43;102753.44;;;20.69;57.67
72370;BME280;60343;-32.030;115.880;2023-07-31T03:23:18;102746.09;;;21.05;56.30
72370;BME280;60343;-32.030;115.880;2023-07-31T03:25:59;102737.59;;;20.93;56.69
72370;BME280;60343;-32.030;115.880;2023-07-31T03:28:34;102743.97;;;21.01;54.35
72370;BME280;60343;-32.030;115.880;2023-07-31T03:31:14;102733.13;;;21.28;54.81
72370;BME280;60343;-32.030;115.880;2023-07-31T03:33:49;102730.66;;;21.55;53.42
72370;BME280;60343;-32.030;115.880;2023-07-31T03:36:23;102718.41;;;21.72;52.74
72370;BME280;60343;-32.030;115.880;2023-07-31T03:38:58;102718.63;;;21.43;52.95
72370;BME280;60343;-32.030;115.880;2023-07-31T03:41:32;102707.94;;;21.20;53.04
72370;BME280;60343;-32.030;115.880;2023-07-31T03:44:07;102706.28;;;20.62;52.81
72370;BME280;60343;-32.030;115.880;2023-07-31T03:46:47;102697.59;;;20.73;53.86
72370;BME280;60343;-32.030;115.880;2023-07-31T03:49:22;102704.94;;;20.72;52.87
72370;BME280;60343;-32.030;115.880;2023-07-31T03:51:56;102692.84;;;20.60;54.45
72370;BME280;60343;-32.030;115.880;2023-07-31T03:54:31;102688.34;;;20.67;53.57
72370;BME280;60343;-32.030;115.880;2023-07-31T03:57:05;102677.06;;;20.70;52.72
72370;BME280;60343;-32.030;115.880;2023-07-31T03:59:40;102672.47;;;20.71;53.76
72370;BME280;60343;-32.030;115.880;2023-07-31T04:02:20;102672.38;;;20.64;54.43
72370;BME280;60343;-32.030;115.880;2023-07-31T04:04:55;102663.19;;;20.65;55.17
72370;BME280;60343;-32.030;115.880;2023-07-31T04:07:29;102658.84;;;20.71;56.39
72370;BME280;60343;-32.030;115.880;2023-07-31T04:10:06;102650.59;;;20.85;55.46
72370;BME280;60343;-32.030;115.880;2023-07-31T04:12:41;102646.38;;;21.04;52.11
72370;BME280;60343;-32.030;115.880;2023-07-31T04:15:15;102638.06;;;21.12;52.67
72370;BME280;60343;-32.030;115.880;2023-07-31T04:17:55;102634.56;;;21.18;53.66
72370;BME280;60343;-32.030;115.880;2023-07-31T04:20:30;102626.47;;;21.04;54.26
72370;BME280;60343;-32.030;115.880;2023-07-31T04:23:05;102624.28;;;21.14;54.35
72370;BME280;60343;-32.030;115.880;2023-07-31T04:25:39;102606.28;;;21.19;53.47
72370;BME280;60343;-32.030;115.880;2023-07-31T04:28:14;102607.19;;;21.26;53.47
72370;BME280;60343;-32.030;115.880;2023-07-31T04:30:48;102598.19;;;21.26;53.03
72370;BME280;60343;-32.030;115.880;2023-07-31T04:33:28;102600.34;;;21.37;54.49
72370;BME280;60343;-32.030;115.880;2023-07-31T04:36:03;102597.41;;;21.38;52.74
72370;BME280;60343;-32.030;115.880;2023-07-31T04:38:38;102588.06;;;21.48;52.60
72370;BME280;60343;-32.030;115.880;2023-07-31T04:41:12;102577.84;;;21.22;53.08
72370;BME280;60343;-32.030;115.880;2023-07-31T04:43:47;102573.31;;;21.35;53.10
72370;BME280;60343;-32.030;115.880;2023-07-31T04:46:21;102574.00;;;21.51;55.25
72370;BME280;60343;-32.030;115.880;2023-07-31T04:49:01;102573.44;;;21.62;53.55
72370;BME280;60343;-32.030;115.880;2023-07-31T04:51:36;102571.00;;;21.80;50.72
72370;BME280;60343;-32.030;115.880;2023-07-31T04:54:10;102557.19;;;21.88;50.75
72370;BME280;60343;-32.030;115.880;2023-07-31T04:56:45;102560.22;;;22.06;50.47
72370;BME280;60343;-32.030;115.880;2023-07-31T04:59:20;102556.06;;;22.23;50.04
72370;BME280;60343;-32.030;115.880;2023-07-31T05:01:54;102544.31;;;22.30;50.48
72370;BME280;60343;-32.030;115.880;2023-07-31T05:04:34;102545.94;;;21.98;50.06
72370;BME280;60343;-32.030;115.880;2023-07-31T05:07:09;102538.31;;;21.93;50.33
72370;BME280;60343;-32.030;115.880;2023-07-31T05:09:44;102532.59;;;21.75;50.48
72370;BME280;60343;-32.030;115.880;2023-07-31T05:12:19;102534.94;;;21.84;50.95
72370;BME280;60343;-32.030;115.880;2023-07-31T05:14:53;102532.50;;;21.96;47.96
72370;BME280;60343;-32.030;115.880;2023-07-31T05:17:28;102534.88;;;22.12;47.93
72370;BME280;60343;-32.030;115.880;2023-07-31T05:20:09;102523.31;;;22.23;47.60
72370;BME280;60343;-32.030;115.880;2023-07-31T05:22:43;102524.53;;;22.01;48.33
72370;BME280;60343;-32.030;115.880;2023-07-31T05:25:18;102519.28;;;22.00;49.22
72370;BME280;60343;-32.030;115.880;2023-07-31T05:27:52;102517.84;;;22.10;46.90
72370;BME280;60343;-32.030;115.880;2023-07-31T05:30:29;102509.88;;;22.29;47.32
72370;BME280;60343;-32.030;115.880;2023-07-31T05:33:03;102503.59;;;22.21;46.73
72370;BME280;60343;-32.030;115.880;2023-07-31T05:35:44;102505.50;;;22.21;49.96
72370;BME280;60343;-32.030;115.880;2023-07-31T05:38:18;102501.47;;;22.23;51.04
72370;BME280;60343;-32.030;115.880;2023-07-31T05:40:53;102494.78;;;22.46;49.84
72370;BME280;60343;-32.030;115.880;2023-07-31T05:43:27;102489.13;;;22.41;48.61
72370;BME280;60343;-32.030;115.880;2023-07-31T05:46:02;102492.06;;;22.46;47.99
72370;BME280;60343;-32.030;115.880;2023-07-31T05:48:36;102490.16;;;22.40;46.96
72370;BME280;60343;-32.030;115.880;2023-07-31T05:51:16;102488.50;;;22.45;45.81
72370;BME280;60343;-32.030;115.880;2023-07-31T05:53:51;102483.88;;;22.59;47.30
72370;BME280;60343;-32.030;115.880;2023-07-31T05:56:25;102486.38;;;22.54;47.56
72370;BME280;60343;-32.030;115.880;2023-07-31T05:59:01;102483.22;;;22.70;46.37
72370;BME280;60343;-32.030;115.880;2023-07-31T06:01:36;102481.38;;;22.77;46.78
72370;BME280;60343;-32.030;115.880;2023-07-31T06:04:10;102487.00;;;22.95;45.70
72370;BME280;60343;-32.030;115.880;2023-07-31T06:06:50;102481.94;;;23.12;46.66
72370;BME280;60343;-32.030;115.880;2023-07-31T06:09:25;102489.78;;;22.82;46.20
72370;BME280;60343;-32.030;115.880;2023-07-31T06:11:59;102478.44;;;22.72;47.06
72370;BME280;60343;-32.030;115.880;2023-07-31T06:14:34;102472.53;;;22.82;47.20
72370;BME280;60343;-32.030;115.880;2023-07-31T06:17:08;102473.59;;;22.87;45.26
72370;BME280;60343;-32.030;115.880;2023-07-31T06:19:43;102477.38;;;22.86;45.96
72370;BME280;60343;-32.030;115.880;2023-07-31T06:22:23;102476.09;;;22.30;48.07
72370;BME280;60343;-32.030;115.880;2023-07-31T06:24:57;102480.91;;;22.01;49.35
72370;BME280;60343;-32.030;115.880;2023-07-31T06:27:32;102481.47;;;21.77;49.57
72370;BME280;60343;-32.030;115.880;2023-07-31T06:30:07;102467.81;;;21.77;48.51
72370;BME280;60343;-32.030;115.880;2023-07-31T06:32:42;102474.88;;;21.58;49.09
72370;BME280;60343;-32.030;115.880;2023-07-31T06:35:17;102471.91;;;21.47;49.24
72370;BME280;60343;-32.030;115.880;2023-07-31T06:37:57;102471.41;;;21.77;47.86
72370;BME280;60343;-32.030;115.880;2023-07-31T06:40:31;102468.13;;;22.15;46.95
72370;BME280;60343;-32.030;115.880;2023-07-31T06:43:06;102460.78;;;22.22;46.51
72370;BME280;60343;-32.030;115.880;2023-07-31T06:45:41;102461.19;;;22.58;45.89
72370;BME280;60343;-32.030;115.880;2023-07-31T06:48:18;102459.94;;;22.35;48.00
72370;BME280;60343;-32.030;115.880;2023-07-31T06:53:31;102454.69;;;22.40;47.13
72370;BME280;60343;-32.030;115.880;2023-07-31T06:56:06;102454.50;;;22.28;45.61
72370;BME280;60343;-32.030;115.880;2023-07-31T06:58:40;102445.25;;;22.03;46.54
72370;BME280;60343;-32.030;115.880;2023-07-31T07:01:14;102459.63;;;21.83;47.90
72370;BME280;60343;-32.030;115.880;2023-07-31T07:03:49;102458.44;;;21.38;50.03
72370;BME280;60343;-32.030;115.880;2023-07-31T07:06:24;102455.75;;;21.04;50.38
72370;BME280;60343;-32.030;115.880;2023-07-31T07:09:04;102452.13;;;21.25;47.39
72370;BME280;60343;-32.030;115.880;2023-07-31T07:11:39;102451.41;;;21.57;48.19
72370;BME280;60343;-32.030;115.880;2023-07-31T07:14:13;102444.97;;;21.91;49.77
72370;BME280;60343;-32.030;115.880;2023-07-31T07:16:52;102442.13;;;22.12;48.86
72370;BME280;60343;-32.030;115.880;2023-07-31T07:19:26;102433.69;;;22.34;48.01
72370;BME280;60343;-32.030;115.880;2023-07-31T07:22:01;102433.47;;;22.61;47.22
72370;BME280;60343;-32.030;115.880;2023-07-31T07:24:41;102432.66;;;22.15;50.79
72370;BME280;60343;-32.030;115.880;2023-07-31T07:27:16;102429.72;;;22.16;50.63
72370;BME280;60343;-32.030;115.880;2023-07-31T07:29:51;102433.28;;;22.30;50.09
72370;BME280;60343;-32.030;115.880;2023-07-31T07:32:26;102433.50;;;22.22;51.28
72370;BME280;60343;-32.030;115.880;2023-07-31T07:35:01;102438.31;;;22.00;52.47
72370;BME280;60343;-32.030;115.880;2023-07-31T07:37:35;102427.06;;;21.49;53.94
72370;BME280;60343;-32.030;115.880;2023-07-31T07:40:15;102428.41;;;21.19;55.66
72370;BME280;60343;-32.030;115.880;2023-07-31T07:42:50;102432.00;;;21.26;55.60
72370;BME280;60343;-32.030;115.880;2023-07-31T07:45:25;102435.22;;;21.43;53.78
72370;BME280;60343;-32.030;115.880;2023-07-31T07:48:00;102435.31;;;21.15;55.98
72370;BME280;60343;-32.030;115.880;2023-07-31T07:50:34;102446.97;;;20.74;56.85
72370;BME280;60343;-32.030;115.880;2023-07-31T07:53:09;102438.50;;;20.56;57.56
72370;BME280;60343;-32.030;115.880;2023-07-31T07:55:49;102443.16;;;20.62;57.65
72370;BME280;60343;-32.030;115.880;2023-07-31T07:58:23;102440.00;;;20.65;57.18
72370;BME280;60343;-32.030;115.880;2023-07-31T08:00:58;102442.38;;;20.75;56.48
72370;BME280;60343;-32.030;115.880;2023-07-31T08:03:32;102448.41;;;20.70;56.48
72370;BME280;60343;-32.030;115.880;2023-07-31T08:06:07;102443.41;;;20.74;55.92
72370;BME280;60343;-32.030;115.880;2023-07-31T08:08:42;102439.66;;;20.75;56.39
72370;BME280;60343;-32.030;115.880;2023-07-31T08:11:22;102437.59;;;20.77;55.92
72370;BME280;60343;-32.030;115.880;2023-07-31T08:13:56;102442.09;;;20.63;56.62
72370;BME280;60343;-32.030;115.880;2023-07-31T08:16:31;102440.56;;;20.88;55.33
72370;BME280;60343;-32.030;115.880;2023-07-31T08:19:05;102432.81;;;20.85;54.86
72370;BME280;60343;-32.030;115.880;2023-07-31T08:21:40;102438.75;;;20.61;55.62
72370;BME280;60343;-32.030;115.880;2023-07-31T08:24:14;102439.59;;;20.62;55.92
72370;BME280;60343;-32.030;115.880;2023-07-31T08:26:54;102436.66;;;20.35;56.15
72370;BME280;60343;-32.030;115.880;2023-07-31T08:29:29;102434.31;;;20.32;56.29
72370;BME280;60343;-32.030;115.880;2023-07-31T08:32:04;102432.25;;;20.34;56.73
72370;BME280;60343;-32.030;115.880;2023-07-31T08:34:38;102435.47;;;20.23;57.70
72370;BME280;60343;-32.030;115.880;2023-07-31T08:37:13;102425.78;;;20.35;55.87
72370;BME280;60343;-32.030;115.880;2023-07-31T08:39:47;102426.69;;;20.21;56.63
72370;BME280;60343;-32.030;115.880;2023-07-31T08:42:27;102427.13;;;20.46;55.64
72370;BME280;60343;-32.030;115.880;2023-07-31T08:45:02;102436.97;;;20.26;55.83
72370;BME280;60343;-32.030;115.880;2023-07-31T08:47:37;102429.06;;;20.09;56.77
72370;BME280;60343;-32.030;115.880;2023-07-31T08:50:13;102430.19;;;20.15;56.80
72370;BME280;60343;-32.030;115.880;2023-07-31T08:52:49;102421.88;;;20.23;56.12
72370;BME280;60343;-32.030;115.880;2023-07-31T08:55:24;102424.47;;;20.59;54.64
72370;BME280;60343;-32.030;115.880;2023-07-31T08:58:06;102427.63;;;20.63;54.84
72370;BME280;60343;-32.030;115.880;2023-07-31T09:00:41;102428.69;;;20.62;55.18
72370;BME280;60343;-32.030;115.880;2023-07-31T09:03:18;102425.75;;;20.14;56.60
72370;BME280;60343;-32.030;115.880;2023-07-31T09:05:56;102422.53;;;19.61;58.44
72370;BME280;60343;-32.030;115.880;2023-07-31T09:08:32;102423.81;;;19.29;58.32
72370;BME280;60343;-32.030;115.880;2023-07-31T09:11:06;102425.34;;;19.03;59.62
72370;BME280;60343;-32.030;115.880;2023-07-31T09:13:46;102421.88;;;18.65;61.38
72370;BME280;60343;-32.030;115.880;2023-07-31T09:16:29;102415.06;;;18.46;62.17
72370;BME280;60343;-32.030;115.880;2023-07-31T09:19:04;102422.25;;;18.24;62.88
72370;BME280;60343;-32.030;115.880;2023-07-31T09:21:48;102421.47;;;18.16;63.24
72370;BME280;60343;-32.030;115.880;2023-07-31T09:24:30;102420.66;;;17.92;63.79
72370;BME280;60343;-32.030;115.880;2023-07-31T09:27:05;102415.34;;;17.76;63.87
72370;BME280;60343;-32.030;115.880;2023-07-31T09:29:45;102424.06;;;17.55;64.57
72370;BME280;60343;-32.030;115.880;2023-07-31T09:32:33;102420.81;;;17.37;65.37
72370;BME280;60343;-32.030;115.880;2023-07-31T09:35:15;102419.72;;;17.24;65.92
72370;BME280;60343;-32.030;115.880;2023-07-31T09:37:55;102417.06;;;17.07;67.15
72370;BME280;60343;-32.030;115.880;2023-07-31T09:40:30;102424.91;;;16.94;67.71
72370;BME280;60343;-32.030;115.880;2023-07-31T09:43:06;102423.09;;;16.79;68.51
72370;BME280;60343;-32.030;115.880;2023-07-31T09:45:46;102417.88;;;16.61;69.23
72370;BME280;60343;-32.030;115.880;2023-07-31T09:48:22;102423.28;;;16.45;69.47
72370;BME280;60343;-32.030;115.880;2023-07-31T09:51:05;102426.34;;;16.25;69.85
72370;BME280;60343;-32.030;115.880;2023-07-31T09:53:39;102420.97;;;16.09;70.39
72370;BME280;60343;-32.030;115.880;2023-07-31T09:56:14;102430.94;;;15.93;71.03
72370;BME280;60343;-32.030;115.880;2023-07-31T09:58:49;102432.44;;;15.79;71.47
72370;BME280;60343;-32.030;115.880;2023-07-31T10:01:29;102430.38;;;15.65;72.53
72370;BME280;60343;-32.030;115.880;2023-07-31T10:04:05;102429.28;;;15.50;72.29
72370;BME280;60343;-32.030;115.880;2023-07-31T10:06:43;102428.94;;;15.36;72.69
72370;BME280;60343;-32.030;115.880;2023-07-31T10:09:19;102430.41;;;15.23;74.05
72370;BME280;60343;-32.030;115.880;2023-07-31T10:12:00;102429.00;;;15.11;74.58
72370;BME280;60343;-32.030;115.880;2023-07-31T10:14:40;102432.81;;;15.00;75.26
72370;BME280;60343;-32.030;115.880;2023-07-31T10:17:22;102427.03;;;14.87;75.08
72370;BME280;60343;-32.030;115.880;2023-07-31T10:19:57;102433.69;;;14.75;75.08
72370;BME280;60343;-32.030;115.880;2023-07-31T10:22:32;102425.59;;;14.67;75.22
72370;BME280;60343;-32.030;115.880;2023-07-31T10:25:08;102435.47;;;14.58;75.08
72370;BME280;60343;-32.030;115.880;2023-07-31T10:27:51;102432.56;;;14.51;76.98
72370;BME280;60343;-32.030;115.880;2023-07-31T10:30:55;102444.03;;;14.53;76.45
72370;BME280;60343;-32.030;115.880;2023-07-31T10:33:44;102440.50;;;14.53;78.64
72370;BME280;60343;-32.030;115.880;2023-07-31T10:36:19;102447.88;;;14.51;78.42
72370;BME280;60343;-32.030;115.880;2023-07-31T10:38:56;102445.66;;;14.46;78.11
72370;BME280;60343;-32.030;115.880;2023-07-31T10:41:31;102459.47;;;14.43;78.29
72370;BME280;60343;-32.030;115.880;2023-07-31T10:44:08;102471.97;;;14.35;79.57
72370;BME280;60343;-32.030;115.880;2023-07-31T10:46:42;102470.06;;;14.27;79.23
72370;BME280;60343;-32.030;115.880;2023-07-31T10:49:30;102478.53;;;14.14;79.60
72370;BME280;60343;-32.030;115.880;2023-07-31T10:52:05;102471.69;;;14.02;79.50
72370;BME280;60343;-32.030;115.880;2023-07-31T10:54:44;102486.38;;;13.90;80.20
72370;BME280;60343;-32.030;115.880;2023-07-31T10:57:22;102481.78;;;13.83;80.39
72370;BME280;60343;-32.030;115.880;2023-07-31T11:00:19;102489.16;;;13.81;79.73
72370;BME280;60343;-32.030;115.880;2023-07-31T11:03:06;102492.28;;;13.76;80.87
72370;BME280;60343;-32.030;115.880;2023-07-31T11:05:51;102498.28;;;13.70;81.13
72370;BME280;60343;-32.030;115.880;2023-07-31T11:08:28;102506.09;;;13.63;81.48
72370;BME280;60343;-32.030;115.880;2023-07-31T11:11:09;102510.41;;;13.56;81.41
72370;BME280;60343;-32.030;115.880;2023-07-31T11:13:46;102513.69;;;13.50;82.17
72370;BME280;60343;-32.030;115.880;2023-07-31T11:16:23;102514.69;;;13.49;81.62
72370;BME280;60343;-32.030;115.880;2023-07-31T11:18:58;102520.06;;;13.49;81.68
72370;BME280;60343;-32.030;115.880;2023-07-31T11:21:38;102511.31;;;13.47;81.88
72370;BME280;60343;-32.030;115.880;2023-07-31T11:24:13;102522.22;;;13.46;81.56
72370;BME280;60343;-32.030;115.880;2023-07-31T11:26:52;102510.06;;;13.42;82.32
72370;BME280;60343;-32.030;115.880;2023-07-31T11:29:28;102514.06;;;13.38;81.93
72370;BME280;60343;-32.030;115.880;2023-07-31T11:32:03;102512.81;;;13.32;82.33
72370;BME280;60343;-32.030;115.880;2023-07-31T11:34:52;102506.84;;;13.28;82.70
72370;BME280;60343;-32.030;115.880;2023-07-31T11:37:49;102503.94;;;13.22;82.80
72370;BME280;60343;-32.030;115.880;2023-07-31T11:40:22;102500.97;;;13.15;83.36
72370;BME280;60343;-32.030;115.880;2023-07-31T11:42:58;102499.69;;;13.10;82.76
72370;BME280;60343;-32.030;115.880;2023-07-31T11:45:33;102497.44;;;13.05;83.04
72370;BME280;60343;-32.030;115.880;2023-07-31T11:48:08;102495.88;;;13.03;83.58
72370;BME280;60343;-32.030;115.880;2023-07-31T11:50:44;102490.09;;;12.98;83.54
72370;BME280;60343;-32.030;115.880;2023-07-31T11:53:28;102484.47;;;12.91;84.21
72370;BME280;60343;-32.030;115.880;2023-07-31T11:56:02;102488.59;;;12.85;84.20
72370;BME280;60343;-32.030;115.880;2023-07-31T11:58:39;102486.34;;;12.81;84.33
72370;BME280;60343;-32.030;115.880;2023-07-31T12:01:15;102489.75;;;12.73;84.92
72370;BME280;60343;-32.030;115.880;2023-07-31T12:03:51;102484.25;;;12.65;84.44
72370;BME280;60343;-32.030;115.880;2023-07-31T12:06:34;102483.13;;;12.58;85.39
72370;BME280;60343;-32.030;115.880;2023-07-31T12:09:15;102492.06;;;12.49;85.40
72370;BME280;60343;-32.030;115.880;2023-07-31T12:11:49;102474.13;;;12.40;85.46
72370;BME280;60343;-32.030;115.880;2023-07-31T12:14:25;102471.31;;;12.32;85.66
72370;BME280;60343;-32.030;115.880;2023-07-31T12:17:00;102467.38;;;12.26;85.94
72370;BME280;60343;-32.030;115.880;2023-07-31T12:19:35;102462.69;;;12.19;85.58
72370;BME280;60343;-32.030;115.880;2023-07-31T12:22:13;102456.78;;;12.15;85.98
72370;BME280;60343;-32.030;115.880;2023-07-31T12:24:55;102464.53;;;12.18;86.26
72370;BME280;60343;-32.030;115.880;2023-07-31T12:27:34;102456.66;;;12.17;86.53
72370;BME280;60343;-32.030;115.880;2023-07-31T12:30:27;102456.06;;;12.13;86.58
72370;BME280;60343;-32.030;115.880;2023-07-31T12:33:04;102467.09;;;12.10;86.78
72370;BME280;60343;-32.030;115.880;2023-07-31T12:35:43;102448.16;;;12.12;86.95
72370;BME280;60343;-32.030;115.880;2023-07-31T12:38:17;102449.41;;;12.08;86.80
72370;BME280;60343;-32.030;115.880;2023-07-31T12:40:57;102446.91;;;12.06;87.40
72370;BME280;60343;-32.030;115.880;2023-07-31T12:43:34;102453.81;;;11.99;87.45
72370;BME280;60343;-32.030;115.880;2023-07-31T12:46:09;102449.59;;;11.96;87.33
72370;BME280;60343;-32.030;115.880;2023-07-31T12:48:44;102441.97;;;11.92;87.90
72370;BME280;60343;-32.030;115.880;2023-07-31T12:51:19;102444.78;;;11.90;87.67
72370;BME280;60343;-32.030;115.880;2023-07-31T12:53:53;102444.22;;;11.87;88.42
72370;BME280;60343;-32.030;115.880;2023-07-31T12:56:34;102444.78;;;11.81;88.54
72370;BME280;60343;-32.030;115.880;2023-07-31T12:59:12;102436.28;;;11.76;88.21
72370;BME280;60343;-32.030;115.880;2023-07-31T13:01:47;102430.59;;;11.69;89.01
72370;BME280;60343;-32.030;115.880;2023-07-31T13:04:21;102428.63;;;11.61;88.46
72370;BME280;60343;-32.030;115.880;2023-07-31T13:06:56;102425.66;;;11.55;88.90
72370;BME280;60343;-32.030;115.880;2023-07-31T13:09:30;102426.19;;;11.49;89.08